Stirling, New Jersey
Current Conditions -  °F | °C
As of 7:53 AM on Friday 28 Nov 2014 (Local Time) from KSMQ Reporting Station
Clear Clear  
Wind Chill: 28°   Ceiling: Unl
Heat Index: 28°   Visibility: 9mi
Dew Point: 24°   Wind: 3mph
Humidity: 85%   Direction: NA
Pressure: 30.17"   Gusts: NA
Location:  40.67°N, 74.49°W
Report Text: KSMQ 281253Z AUTO VRB03KT 9SM CLR M02/M04 A3017 RMK AO2 SLP218 T10221044
Loading
Personal Weather Stations






























Interactive Weather Map New forecast layout! Learn more

10-Day Weather Forecast

Advertisements
Track Severe Weather on mobile